createdAt,value
2018-02-13T00:00:47.079Z,10.50
2018-02-13T00:03:14.583Z,9.57
2018-02-13T00:05:43.291Z,11.00
2018-02-13T00:08:10.856Z,11.20
2018-02-13T00:10:38.381Z,11.60
2018-02-13T00:13:05.919Z,10.03
2018-02-13T00:15:34.196Z,10.27
2018-02-13T00:18:02.455Z,10.07
2018-02-13T00:20:29.971Z,9.53
2018-02-13T00:23:01.408Z,11.03
2018-02-13T00:25:28.945Z,9.80
2018-02-13T00:27:56.465Z,9.90
2018-02-13T00:30:23.969Z,9.20
2018-02-13T00:32:51.481Z,11.23
2018-02-13T00:35:19.007Z,9.37
2018-02-13T00:37:47.284Z,10.20
2018-02-13T00:40:14.792Z,10.37
2018-02-13T00:42:42.304Z,9.60
2018-02-13T00:45:10.650Z,10.87
2018-02-13T00:47:38.931Z,10.43
2018-02-13T00:50:06.450Z,9.97
2018-02-13T00:52:33.968Z,10.77
2018-02-13T00:55:01.487Z,9.97
2018-02-13T00:57:29.777Z,10.70
2018-02-13T00:59:58.064Z,13.00
2018-02-13T01:02:25.562Z,10.73
2018-02-13T01:04:53.076Z,13.07
2018-02-13T01:07:20.611Z,10.77
2018-02-13T01:09:48.124Z,11.53
2018-02-13T01:12:15.662Z,11.80
2018-02-13T01:14:43.183Z,12.60
2018-02-13T01:17:10.682Z,13.47
2018-02-13T01:19:38.205Z,12.47
2018-02-13T01:22:05.709Z,14.03
2018-02-13T01:24:33.221Z,13.63
2018-02-13T01:27:01.513Z,13.43
2018-02-13T01:29:29.801Z,12.93
2018-02-13T01:31:57.324Z,13.03
2018-02-13T01:34:24.840Z,12.43
2018-02-13T01:36:52.344Z,15.00
2018-02-13T01:39:20.619Z,13.77
2018-02-13T01:41:48.138Z,14.50
2018-02-13T01:44:15.660Z,14.80
2018-02-13T01:46:43.158Z,13.80
2018-02-13T01:49:10.682Z,14.10
2018-02-13T01:51:38.538Z,14.37
2018-02-13T01:54:06.856Z,13.53
2018-02-13T01:56:34.373Z,12.83
2018-02-13T01:59:01.884Z,16.03
2018-02-13T02:01:29.383Z,13.10
2018-02-13T02:03:57.671Z,11.70
2018-02-13T02:06:25.947Z,11.87
2018-02-13T02:08:54.208Z,12.07
2018-02-13T02:11:22.500Z,12.80
2018-02-13T02:13:50.055Z,12.40
2018-02-13T02:16:17.540Z,11.10
2018-02-13T02:18:45.058Z,10.83
2018-02-13T02:21:12.576Z,12.20
2018-02-13T02:23:40.075Z,10.10
2018-02-13T02:26:07.591Z,10.77
2018-02-13T02:28:35.082Z,10.83
2018-02-13T02:31:02.599Z,11.13
2018-02-13T02:33:30.126Z,14.27
2018-02-13T02:35:57.644Z,11.17
2018-02-13T02:38:25.143Z,11.70
2018-02-13T02:40:53.430Z,11.60
2018-02-13T02:43:21.715Z,12.27
2018-02-13T02:45:49.237Z,12.63
2018-02-13T02:48:16.746Z,11.17
2018-02-13T02:50:44.257Z,11.80
2018-02-13T02:53:12.540Z,13.67
2018-02-13T02:55:40.832Z,14.13
2018-02-13T02:58:09.117Z,12.07
2018-02-13T03:00:37.383Z,11.00
2018-02-13T03:03:04.904Z,12.87
2018-02-13T03:05:32.406Z,12.20
2018-02-13T03:07:59.908Z,11.03
2018-02-13T03:10:27.442Z,18.67
2018-02-13T03:12:54.940Z,12.30
2018-02-13T03:15:22.453Z,12.10
2018-02-13T03:17:49.975Z,13.03
2018-02-13T03:20:17.485Z,13.80
2018-02-13T03:22:44.998Z,13.27
2018-02-13T03:25:12.564Z,13.27
2018-02-13T03:27:40.848Z,12.57
2018-02-13T03:30:08.377Z,16.17
2018-02-13T03:32:35.912Z,13.73
2018-02-13T03:35:03.420Z,12.27
2018-02-13T03:37:31.686Z,13.50
2018-02-13T03:39:59.974Z,13.33
2018-02-13T03:42:27.476Z,11.77
2018-02-13T03:44:54.990Z,13.07
2018-02-13T03:47:22.506Z,13.90
2018-02-13T03:49:50.006Z,12.10
2018-02-13T03:52:18.282Z,13.37
2018-02-13T03:54:45.812Z,12.63
2018-02-13T03:57:13.334Z,12.40
2018-02-13T03:59:40.832Z,13.73
2018-02-13T04:02:08.348Z,13.27
2018-02-13T04:04:35.850Z,13.93
2018-02-13T04:07:03.356Z,14.70
2018-02-13T04:09:30.868Z,13.80
2018-02-13T04:11:58.382Z,13.03
2018-02-13T04:14:25.877Z,13.93
2018-02-13T04:16:53.382Z,14.40
2018-02-13T04:19:20.920Z,12.63
2018-02-13T04:21:49.212Z,12.50
2018-02-13T04:24:16.747Z,12.07
2018-02-13T04:26:44.253Z,15.53
2018-02-13T04:29:11.787Z,13.87
2018-02-13T04:31:40.176Z,12.63
2018-02-13T04:34:07.708Z,14.30
2018-02-13T04:36:35.974Z,12.63
2018-02-13T04:39:03.490Z,13.03
2018-02-13T04:41:30.994Z,12.93
2018-02-13T04:43:58.499Z,11.77
2018-02-13T04:46:26.040Z,12.47
2018-02-13T04:48:53.584Z,14.47
2018-02-13T04:51:21.086Z,17.43
2018-02-13T04:53:48.606Z,13.03
2018-02-13T04:56:16.879Z,12.13
2018-02-13T04:58:45.151Z,15.53
2018-02-13T05:01:13.570Z,13.97
2018-02-13T05:03:41.076Z,14.43
2018-02-13T05:06:09.360Z,14.00
2018-02-13T05:08:37.644Z,13.93
2018-02-13T05:11:05.173Z,14.10
2018-02-13T05:13:32.685Z,14.17
2018-02-13T05:16:00.203Z,13.00
2018-02-13T05:18:27.730Z,12.43
2018-02-13T05:20:55.235Z,13.70
2018-02-13T05:23:22.760Z,14.33
2018-02-13T05:25:50.304Z,13.83
2018-02-13T05:28:17.840Z,13.93
2018-02-13T05:30:45.400Z,13.33
2018-02-13T05:33:13.724Z,15.63
2018-02-13T05:35:41.268Z,12.80
2018-02-13T05:38:09.455Z,15.20
2018-02-13T05:40:38.156Z,13.40
2018-02-13T05:43:05.705Z,13.00
2018-02-13T05:45:33.252Z,13.73
2018-02-13T05:48:00.803Z,13.67
2018-02-13T05:50:28.346Z,14.97
2018-02-13T05:52:55.912Z,13.10
2018-02-13T05:55:23.471Z,14.57
2018-02-13T05:57:51.014Z,16.03
2018-02-13T06:00:18.582Z,12.90
2018-02-13T06:02:46.124Z,12.90
2018-02-13T06:05:13.689Z,12.93
2018-02-13T06:07:41.234Z,13.30
2018-02-13T06:10:08.809Z,13.03
2018-02-13T06:12:36.372Z,14.63
2018-02-13T06:15:04.688Z,15.90
2018-02-13T06:17:32.231Z,12.53
2018-02-13T06:20:00.532Z,17.77
2018-02-13T06:22:28.125Z,16.43
2018-02-13T06:24:55.653Z,15.70
2018-02-13T06:27:23.192Z,16.07
2018-02-13T06:29:50.778Z,15.40
2018-02-13T06:32:18.336Z,15.00
2018-02-13T06:34:46.657Z,17.50
2018-02-13T06:37:14.198Z,17.03
2018-02-13T06:39:41.743Z,19.10
2018-02-13T06:42:10.042Z,15.43
2018-02-13T06:44:37.593Z,16.53
2018-02-13T06:47:05.141Z,15.30
2018-02-13T06:49:32.697Z,15.97
2018-02-13T06:52:00.260Z,16.80
2018-02-13T06:54:28.583Z,14.53
2018-02-13T06:56:56.122Z,15.80
2018-02-13T06:59:23.692Z,15.73
2018-02-13T07:01:52.072Z,12.23
2018-02-13T07:04:19.615Z,14.20
2018-02-13T07:06:47.148Z,13.80
2018-02-13T07:09:14.708Z,14.43
2018-02-13T07:11:42.236Z,14.40
2018-02-13T07:14:09.780Z,12.90
2018-02-13T07:16:37.331Z,14.40
2018-02-13T07:19:04.876Z,15.00
2018-02-13T07:21:32.446Z,14.97
2018-02-13T07:23:59.982Z,15.20
2018-02-13T07:26:27.512Z,14.73
2018-02-13T07:28:55.075Z,13.80
2018-02-13T07:31:22.620Z,11.17
2018-02-13T07:33:50.144Z,13.27
2018-02-13T07:36:17.721Z,12.00
2018-02-13T07:38:45.354Z,12.40
2018-02-13T07:41:12.900Z,13.70
2018-02-13T07:43:40.468Z,14.17
2018-02-13T07:46:08.020Z,11.90
2018-02-13T07:48:36.356Z,12.03
2018-02-13T07:51:03.932Z,18.57
2018-02-13T07:53:31.476Z,12.17
2018-02-13T07:55:58.995Z,11.27
2018-02-13T07:58:26.552Z,12.57
2018-02-13T08:00:54.115Z,11.67
2018-02-13T08:03:21.674Z,14.83
2018-02-13T08:05:49.229Z,14.17
2018-02-13T08:08:16.765Z,11.53
2018-02-13T08:10:44.344Z,13.43
2018-02-13T08:13:11.899Z,12.77
2018-02-13T08:15:39.452Z,13.90
2018-02-13T08:18:07.001Z,13.93
2018-02-13T08:20:35.332Z,10.67
2018-02-13T08:23:02.892Z,13.20
2018-02-13T08:25:30.432Z,13.77
2018-02-13T08:27:57.984Z,16.50
2018-02-13T08:30:25.532Z,13.70
2018-02-13T08:32:53.076Z,12.23
2018-02-13T08:35:20.628Z,13.07
2018-02-13T08:37:48.938Z,15.27
2018-02-13T08:40:16.465Z,15.00
2018-02-13T08:42:44.177Z,17.13
2018-02-13T08:45:11.710Z,15.20
2018-02-13T08:47:39.240Z,14.23
2018-02-13T08:50:06.787Z,15.20
2018-02-13T08:52:34.330Z,12.30
2018-02-13T08:55:01.900Z,15.83
2018-02-13T08:57:29.451Z,13.67
2018-02-13T08:59:56.995Z,15.37
2018-02-13T09:02:24.541Z,15.23
2018-02-13T09:04:52.106Z,15.93
2018-02-13T09:07:19.659Z,14.03
2018-02-13T09:09:47.181Z,14.23
2018-02-13T09:12:15.477Z,12.67
2018-02-13T09:14:43.015Z,15.07
2018-02-13T09:17:10.525Z,16.20
2018-02-13T09:19:38.056Z,15.23
2018-02-13T09:22:05.584Z,13.93
2018-02-13T09:24:33.100Z,13.13
2018-02-13T09:27:00.639Z,12.77
2018-02-13T09:29:28.150Z,12.30
2018-02-13T09:31:55.663Z,11.17
2018-02-13T09:34:23.179Z,12.97
2018-02-13T09:36:50.685Z,21.03
2018-02-13T09:39:18.205Z,15.57
2018-02-13T09:41:46.513Z,15.07
2018-02-13T09:44:14.046Z,12.47
2018-02-13T09:46:41.566Z,15.00
2018-02-13T09:49:09.102Z,13.37
2018-02-13T09:51:36.599Z,14.93
2018-02-13T09:54:04.104Z,13.00
2018-02-13T09:56:31.644Z,11.33
2018-02-13T09:58:59.188Z,16.53
2018-02-13T10:01:27.487Z,10.57
2018-02-13T10:03:55.007Z,14.40
2018-02-13T10:06:23.337Z,13.93
2018-02-13T10:08:50.850Z,16.23
2018-02-13T10:11:18.379Z,14.17
2018-02-13T10:13:45.899Z,14.33
2018-02-13T10:16:13.428Z,12.30
2018-02-13T10:18:40.956Z,12.50
2018-02-13T10:21:08.469Z,16.40
2018-02-13T10:23:36.744Z,15.03
2018-02-13T10:26:05.012Z,13.27
2018-02-13T10:28:33.294Z,16.37
2018-02-13T10:31:01.578Z,13.27
2018-02-13T10:33:29.128Z,14.37
2018-02-13T10:35:56.643Z,15.40
2018-02-13T10:38:24.156Z,13.67
2018-02-13T10:40:51.689Z,15.70
2018-02-13T10:43:19.206Z,18.67
2018-02-13T10:45:46.721Z,17.60
2018-02-13T10:48:15.012Z,17.57
2018-02-13T10:50:42.540Z,15.33
2018-02-13T10:53:10.109Z,14.90
2018-02-13T10:55:37.642Z,15.13
2018-02-13T10:58:05.166Z,15.57
2018-02-13T11:00:38.428Z,14.53
2018-02-13T11:03:06.708Z,18.20
2018-02-13T11:05:34.215Z,17.17
2018-02-13T11:08:01.741Z,15.00
2018-02-13T11:10:29.273Z,19.10
2018-02-13T11:12:57.559Z,19.47
2018-02-13T11:15:25.846Z,18.30
2018-02-13T11:17:53.367Z,19.00
2018-02-13T11:20:20.866Z,19.67
2018-02-13T11:22:48.392Z,17.83
2018-02-13T11:25:15.905Z,15.00
2018-02-13T11:27:43.416Z,19.67
2018-02-13T11:30:10.936Z,14.40
2018-02-13T11:32:38.445Z,16.27
2018-02-13T11:35:06.727Z,16.47
2018-02-13T11:37:35.018Z,15.13
2018-02-13T11:40:02.540Z,15.30
2018-02-13T11:42:30.072Z,16.93
2018-02-13T11:44:57.601Z,17.67
2018-02-13T11:47:25.110Z,15.47
2018-02-13T11:49:52.626Z,15.13
2018-02-13T11:52:20.137Z,14.00
2018-02-13T11:54:48.427Z,18.60
2018-02-13T11:57:16.705Z,15.80
2018-02-13T11:59:45.038Z,21.67
2018-02-13T12:02:12.547Z,23.60
2018-02-13T12:04:40.082Z,17.90
2018-02-13T12:07:07.654Z,21.07
2018-02-13T12:09:35.124Z,19.80
2018-02-13T12:12:02.631Z,13.87
2018-02-13T12:14:30.170Z,12.07
2018-02-13T12:16:57.683Z,17.00
2018-02-13T12:19:25.185Z,23.87
2018-02-13T12:21:52.706Z,17.53
2018-02-13T12:24:20.988Z,17.13
2018-02-13T12:26:48.531Z,18.00
2018-02-13T12:29:16.051Z,20.40
2018-02-13T12:31:43.572Z,20.30
2018-02-13T12:34:11.076Z,18.43
2018-02-13T12:36:38.592Z,19.30
2018-02-13T12:39:06.160Z,22.63
2018-02-13T12:41:33.636Z,21.23
2018-02-13T12:44:01.175Z,19.20
2018-02-13T12:46:28.705Z,17.80
2018-02-13T12:48:57.056Z,18.93
2018-02-13T12:51:24.537Z,20.93
2018-02-13T12:53:52.067Z,18.40
2018-02-13T12:56:19.610Z,19.97
2018-02-13T12:58:47.119Z,19.23
2018-02-13T13:01:14.661Z,19.80
2018-02-13T13:03:42.191Z,16.83
2018-02-13T13:06:09.727Z,18.63
2018-02-13T13:08:37.265Z,16.97
2018-02-13T13:11:05.541Z,15.70
2018-02-13T13:13:33.076Z,18.13
2018-02-13T13:16:00.611Z,14.33
2018-02-13T13:18:28.121Z,15.03
2018-02-13T13:20:56.401Z,16.87
2018-02-13T13:23:23.914Z,15.40
2018-02-13T13:25:51.423Z,17.73
2018-02-13T13:28:18.966Z,17.67
2018-02-13T13:30:47.243Z,16.87
2018-02-13T13:33:15.542Z,16.13
2018-02-13T13:35:43.055Z,23.40
2018-02-13T13:38:10.565Z,18.70
2018-02-13T13:40:38.106Z,18.13
2018-02-13T13:43:05.631Z,16.37
2018-02-13T13:45:33.135Z,17.87
2018-02-13T13:48:00.656Z,15.07
2018-02-13T13:50:28.171Z,16.33
2018-02-13T13:52:56.436Z,11.67
2018-02-13T13:55:23.945Z,12.07
2018-02-13T13:57:51.479Z,13.87
2018-02-13T14:00:18.999Z,15.73
2018-02-13T14:02:46.499Z,11.23
2018-02-13T14:05:14.031Z,13.47
2018-02-13T14:07:41.546Z,14.73
2018-02-13T14:10:09.070Z,13.70
2018-02-13T14:12:36.607Z,15.23
2018-02-13T14:15:04.116Z,14.17
2018-02-13T14:17:35.255Z,15.37
2018-02-13T14:20:02.803Z,16.77
2018-02-13T14:22:30.319Z,14.97
2018-02-13T14:24:57.842Z,16.73
2018-02-13T14:27:25.358Z,19.33
2018-02-13T14:29:52.864Z,21.93
2018-02-13T14:32:21.127Z,18.03
2018-02-13T14:34:48.662Z,15.33
2018-02-13T14:37:16.179Z,10.70
2018-02-13T14:39:43.681Z,13.40
2018-02-13T14:42:11.195Z,10.40
2018-02-13T14:44:38.692Z,9.93
2018-02-13T14:47:06.220Z,8.57
2018-02-13T14:49:33.731Z,7.70
2018-02-13T14:52:01.241Z,8.23
2018-02-13T14:54:28.754Z,8.20
2018-02-13T14:56:56.265Z,8.13
2018-02-13T14:59:23.763Z,9.67
2018-02-13T15:01:52.155Z,9.33
2018-02-13T15:04:19.685Z,10.77
2018-02-13T15:06:47.197Z,10.17
2018-02-13T15:09:15.459Z,9.37
2018-02-13T15:11:43.771Z,10.40
2018-02-13T15:14:11.279Z,13.27
2018-02-13T15:16:38.814Z,11.40
2018-02-13T15:19:06.357Z,14.47
2018-02-13T15:21:33.868Z,12.43
2018-02-13T15:24:01.391Z,14.23
2018-02-13T15:26:28.936Z,17.70
2018-02-13T15:28:56.461Z,17.70
2018-02-13T15:31:23.987Z,15.47
2018-02-13T15:33:51.523Z,16.17
2018-02-13T15:36:19.027Z,15.80
2018-02-13T15:38:46.566Z,17.23
2018-02-13T15:41:14.077Z,19.17
2018-02-13T15:43:41.579Z,23.73
2018-02-13T15:46:09.090Z,18.37
2018-02-13T15:48:36.622Z,23.87
2018-02-13T15:51:04.899Z,21.03
2018-02-13T15:53:32.424Z,19.97
2018-02-13T15:55:59.943Z,18.43
2018-02-13T15:58:27.445Z,20.27
2018-02-13T16:00:54.965Z,23.47
2018-02-13T16:03:22.511Z,26.00
2018-02-13T16:05:50.025Z,22.60
2018-02-13T16:08:18.340Z,29.13
2018-02-13T16:10:45.886Z,29.90
2018-02-13T16:13:13.405Z,28.60
2018-02-13T16:15:40.923Z,32.10
2018-02-13T16:18:08.463Z,30.67
2018-02-13T16:20:36.016Z,31.20
2018-02-13T16:23:03.503Z,27.70
2018-02-13T16:25:31.043Z,34.43
2018-02-13T16:27:58.567Z,35.00
2018-02-13T16:30:26.089Z,31.97
2018-02-13T16:32:53.617Z,35.87
2018-02-13T16:35:21.905Z,30.53
2018-02-13T16:37:49.466Z,36.47
2018-02-13T16:40:16.975Z,36.10
2018-02-13T16:42:44.483Z,32.83
2018-02-13T16:45:12.022Z,32.97
2018-02-13T16:47:40.333Z,29.73
2018-02-13T16:50:07.859Z,32.33
2018-02-13T16:52:35.383Z,30.70
2018-02-13T16:55:02.895Z,24.60
2018-02-13T16:57:30.411Z,25.83
2018-02-13T16:59:57.945Z,29.30
2018-02-13T17:02:25.464Z,25.10
2018-02-13T17:04:53.743Z,24.60
2018-02-13T17:07:21.263Z,22.57
2018-02-13T17:09:48.787Z,21.43
2018-02-13T17:12:16.290Z,27.50
2018-02-13T17:14:43.800Z,22.83
2018-02-13T17:17:12.089Z,21.57
2018-02-13T17:19:39.676Z,20.23
2018-02-13T17:22:07.160Z,19.83
2018-02-13T17:24:35.489Z,25.00
2018-02-13T17:27:03.033Z,20.67
2018-02-13T17:29:30.525Z,20.27
2018-02-13T17:31:58.043Z,23.57
2018-02-13T17:34:25.560Z,23.17
2018-02-13T17:36:53.092Z,22.30
2018-02-13T17:39:20.663Z,23.07
2018-02-13T17:41:48.175Z,23.00
2018-02-13T17:44:15.685Z,24.00
2018-02-13T17:46:43.245Z,28.77
2018-02-13T17:49:10.759Z,26.23
2018-02-13T17:51:38.289Z,25.90
2018-02-13T17:54:06.591Z,28.73
2018-02-13T17:56:34.093Z,27.13
2018-02-13T17:59:01.614Z,28.47
2018-02-13T18:01:29.146Z,29.27
2018-02-13T18:03:57.449Z,27.47
2018-02-13T18:06:24.955Z,26.00
2018-02-13T18:08:52.485Z,35.63
2018-02-13T18:11:20.007Z,32.63
2018-02-13T18:13:47.539Z,27.50
2018-02-13T18:16:15.083Z,29.00
2018-02-13T18:18:42.611Z,30.63
2018-02-13T18:21:10.905Z,26.50
2018-02-13T18:23:38.431Z,31.47
2018-02-13T18:26:06.036Z,32.27
2018-02-13T18:28:33.576Z,30.67
2018-02-13T18:31:01.096Z,31.13
2018-02-13T18:33:28.623Z,27.17
2018-02-13T18:35:56.139Z,29.20
2018-02-13T18:38:23.681Z,31.40
2018-02-13T18:40:51.193Z,27.83
2018-02-13T18:43:18.685Z,28.83
2018-02-13T18:45:46.205Z,28.33
2018-02-13T18:48:13.723Z,32.23
2018-02-13T18:50:41.227Z,33.83
2018-02-13T18:55:36.301Z,35.83
2018-02-13T18:58:03.807Z,31.57
2018-02-13T19:00:31.405Z,31.53
2018-02-13T19:02:58.911Z,30.63
2018-02-13T19:05:26.407Z,32.50
2018-02-13T19:07:53.922Z,33.40
2018-02-13T19:10:21.440Z,30.63
2018-02-13T19:12:48.967Z,36.33
2018-02-13T19:15:16.503Z,33.03
2018-02-13T19:17:44.019Z,37.43
2018-02-13T19:20:11.535Z,34.27
2018-02-13T19:22:39.068Z,35.23
2018-02-13T19:25:06.583Z,36.20
2018-02-13T19:27:34.135Z,39.37
2018-02-13T19:30:01.661Z,36.33
2018-02-13T19:32:29.175Z,42.60
2018-02-13T19:34:56.701Z,35.40
2018-02-13T19:37:24.227Z,35.10
2018-02-13T19:39:51.754Z,38.40
2018-02-13T19:42:19.283Z,37.10
2018-02-13T19:44:46.823Z,34.07
2018-02-13T19:47:14.343Z,33.77
2018-02-13T19:49:41.855Z,33.97
2018-02-13T19:52:09.407Z,33.00
2018-02-13T19:54:36.967Z,37.43
2018-02-13T19:57:04.484Z,35.40
2018-02-13T19:59:32.029Z,41.47
2018-02-13T20:01:59.568Z,33.70
2018-02-13T20:04:27.105Z,35.60
2018-02-13T20:06:55.426Z,32.53
2018-02-13T20:09:22.929Z,38.00
2018-02-13T20:11:50.439Z,36.73
2018-02-13T20:14:17.977Z,35.10
2018-02-13T20:16:46.300Z,37.03
2018-02-13T20:19:13.818Z,34.90
2018-02-13T20:21:41.349Z,34.23
2018-02-13T20:24:08.867Z,36.17
2018-02-13T20:26:36.370Z,36.17
2018-02-13T20:29:03.907Z,27.93
2018-02-13T20:31:31.444Z,31.33
2018-02-13T20:33:58.957Z,37.63
2018-02-13T20:36:26.479Z,30.10
2018-02-13T20:38:54.019Z,37.13
2018-02-13T20:41:21.540Z,33.57
2018-02-13T20:43:49.086Z,30.90
2018-02-13T20:46:16.591Z,31.30
2018-02-13T20:48:44.127Z,33.40
2018-02-13T20:51:11.660Z,38.77
2018-02-13T20:53:39.939Z,31.83
2018-02-13T20:56:07.447Z,34.67
2018-02-13T20:58:34.985Z,36.37
2018-02-13T21:01:02.495Z,32.00
2018-02-13T21:03:30.024Z,34.87
2018-02-13T21:05:57.557Z,35.57
2018-02-13T21:08:25.076Z,35.37
2018-02-13T21:10:52.607Z,38.10
2018-02-13T21:13:20.891Z,34.63
2018-02-13T21:15:48.399Z,35.60
2018-02-13T21:18:15.915Z,35.37
2018-02-13T21:20:43.433Z,34.37
2018-02-13T21:23:10.941Z,39.80
2018-02-13T21:25:38.484Z,35.50
2018-02-13T21:28:06.009Z,32.83
2018-02-13T21:30:33.533Z,41.57
2018-02-13T21:33:01.063Z,36.40
2018-02-13T21:35:28.586Z,35.23
2018-02-13T21:37:56.108Z,40.77
2018-02-13T21:40:23.624Z,40.57
2018-02-13T21:42:51.145Z,38.33
2018-02-13T21:45:19.452Z,38.77
2018-02-13T21:47:47.132Z,34.90
2018-02-13T21:50:14.649Z,38.53
2018-02-13T21:52:42.923Z,38.53
2018-02-13T21:55:11.221Z,35.00
2018-02-13T21:57:38.739Z,40.63
2018-02-13T22:00:06.249Z,38.67
2018-02-13T22:02:33.764Z,40.40
2018-02-13T22:05:02.043Z,41.33
2018-02-13T22:07:29.568Z,42.10
2018-02-13T22:09:57.090Z,39.70
2018-02-13T22:12:24.626Z,39.33
2018-02-13T22:14:52.133Z,42.10
2018-02-13T22:17:19.651Z,45.17
2018-02-13T22:19:47.168Z,43.23
2018-02-13T22:22:14.717Z,42.33
2018-02-13T22:24:42.247Z,46.77
2018-02-13T22:27:09.758Z,45.23
2018-02-13T22:29:37.275Z,46.53
2018-02-13T22:32:05.560Z,45.43
2018-02-13T22:34:33.081Z,44.47
2018-02-13T22:37:00.584Z,50.03
2018-02-13T22:39:28.117Z,50.10
2018-02-13T22:41:55.620Z,48.60
2018-02-13T22:44:23.134Z,52.63
2018-02-13T22:46:50.649Z,49.97
2018-02-13T22:49:18.178Z,55.73
2018-02-13T22:51:45.693Z,55.23
2018-02-13T22:54:13.229Z,56.90
2018-02-13T22:56:40.771Z,54.73
2018-02-13T22:59:08.279Z,55.57
2018-02-13T23:01:35.801Z,60.03
2018-02-13T23:04:03.333Z,59.13
2018-02-13T23:06:31.005Z,57.07
2018-02-13T23:08:58.532Z,49.70
2018-02-13T23:11:26.050Z,57.20
2018-02-13T23:13:53.566Z,59.63
2018-02-13T23:16:21.087Z,57.17
2018-02-13T23:18:48.588Z,62.07
2018-02-13T23:21:16.105Z,59.50
2018-02-13T23:23:43.779Z,60.00
2018-02-13T23:26:11.285Z,59.37
2018-02-13T23:28:38.795Z,67.47
2018-02-13T23:31:06.325Z,57.67
2018-02-13T23:33:33.885Z,57.37
2018-02-13T23:36:02.174Z,66.00
2018-02-13T23:38:29.732Z,70.73
2018-02-13T23:40:57.221Z,62.93
2018-02-13T23:43:24.728Z,63.93
2018-02-13T23:45:52.244Z,64.43
2018-02-13T23:48:19.765Z,62.90
2018-02-13T23:50:47.271Z,68.07
2018-02-13T23:53:14.785Z,64.80
2018-02-13T23:55:42.317Z,63.80
2018-02-13T23:58:09.829Z,70.77
